Terminal Aerodrome Forecast
Issued by NWS

Home | Current Version | Previous Version | Text Only | Print | Product List | Glossary On
Versions: 1 2 3 4 5 6 7 8 9 10 11 12 13 14 15 16 17 18 19 20 21 22 23 24 25 26 27 28 29 30 31 32 33 34 35 36
227
FTAK31 PANC 212019 AAA
TAFADL
TAF AMD
PADL 212019Z 2120/2218 02015KT 2SM -SN OVC030
      TEMPO 2120/2122 3/4SM -SN BKN015 OVC030
     FM212200 36018G27KT 1/4SM SN BLSN BKN010 OVC025 WS010/09030KT
     FM220200 01012G20KT 1SM -SN BLSN OVC008 WS020/13040KT
     FM220700 18012G20KT 5SM -SN SCT008 BKN012
     FM221500 20005KT P6SM -SHSN SCT012 BKN030=

USA.gov is the U.S. government's official web portal to all federal, state and local government web resources and services.